sensor_id;sensor_type;location;lat;lon;timestamp;P1;durP1;ratioP1;P2;durP2;ratioP2
42702;SDS011;28341;52.064;4.920;2022-08-16T00:00:49;42.58;;;38.15;;
42702;SDS011;28341;52.064;4.920;2022-08-16T00:02:54;43.00;;;38.25;;
42702;SDS011;28341;52.064;4.920;2022-08-16T00:05:01;41.35;;;37.25;;
42702;SDS011;28341;52.064;4.920;2022-08-16T00:07:09;52.70;;;47.50;;
42702;SDS011;28341;52.064;4.920;2022-08-16T00:09:13;47.65;;;42.75;;
42702;SDS011;28341;52.064;4.920;2022-08-16T00:11:17;50.38;;;45.13;;
42702;SDS011;28341;52.064;4.920;2022-08-16T00:13:22;42.38;;;38.28;;
42702;SDS011;28341;52.064;4.920;2022-08-16T00:15:29;40.75;;;36.75;;
42702;SDS011;28341;52.064;4.920;2022-08-16T00:17:36;42.80;;;38.65;;
42702;SDS011;28341;52.064;4.920;2022-08-16T00:19:41;46.45;;;41.47;;
42702;SDS011;28341;52.064;4.920;2022-08-16T00:21:48;47.08;;;42.38;;
42702;SDS011;28341;52.064;4.920;2022-08-16T00:23:53;48.92;;;43.90;;
42702;SDS011;28341;52.064;4.920;2022-08-16T00:25:57;45.70;;;40.97;;
42702;SDS011;28341;52.064;4.920;2022-08-16T00:28:02;44.65;;;40.25;;
42702;SDS011;28341;52.064;4.920;2022-08-16T00:30:07;44.55;;;39.95;;
42702;SDS011;28341;52.064;4.920;2022-08-16T00:32:14;50.28;;;45.38;;
42702;SDS011;28341;52.064;4.920;2022-08-16T00:34:19;50.58;;;45.55;;
42702;SDS011;28341;52.064;4.920;2022-08-16T00:36:25;51.65;;;46.38;;
42702;SDS011;28341;52.064;4.920;2022-08-16T00:38:32;50.22;;;44.90;;
42702;SDS011;28341;52.064;4.920;2022-08-16T00:40:37;50.85;;;45.80;;
42702;SDS011;28341;52.064;4.920;2022-08-16T00:42:46;45.80;;;41.10;;
42702;SDS011;28341;52.064;4.920;2022-08-16T00:44:53;51.67;;;46.63;;
42702;SDS011;28341;52.064;4.920;2022-08-16T00:47:03;49.95;;;44.75;;
42702;SDS011;28341;52.064;4.920;2022-08-16T00:49:10;51.22;;;46.10;;
42702;SDS011;28341;52.064;4.920;2022-08-16T00:51:17;49.55;;;44.53;;
42702;SDS011;28341;52.064;4.920;2022-08-16T00:53:24;53.58;;;48.05;;
42702;SDS011;28341;52.064;4.920;2022-08-16T00:55:31;48.03;;;43.33;;
42702;SDS011;28341;52.064;4.920;2022-08-16T00:57:36;55.20;;;49.45;;
42702;SDS011;28341;52.064;4.920;2022-08-16T00:59:41;51.40;;;46.05;;
42702;SDS011;28341;52.064;4.920;2022-08-16T01:01:45;51.13;;;45.97;;
42702;SDS011;28341;52.064;4.920;2022-08-16T01:03:50;53.92;;;48.03;;
42702;SDS011;28341;52.064;4.920;2022-08-16T01:05:56;54.05;;;48.20;;
42702;SDS011;28341;52.064;4.920;2022-08-16T01:08:01;52.03;;;46.63;;
42702;SDS011;28341;52.064;4.920;2022-08-16T01:10:06;51.80;;;46.22;;
42702;SDS011;28341;52.064;4.920;2022-08-16T01:12:13;53.55;;;47.78;;
42702;SDS011;28341;52.064;4.920;2022-08-16T01:14:20;52.28;;;46.75;;
42702;SDS011;28341;52.064;4.920;2022-08-16T01:16:28;48.15;;;43.13;;
42702;SDS011;28341;52.064;4.920;2022-08-16T01:18:34;49.90;;;44.58;;
42702;SDS011;28341;52.064;4.920;2022-08-16T01:20:43;47.88;;;43.08;;
42702;SDS011;28341;52.064;4.920;2022-08-16T01:22:54;46.50;;;41.78;;
42702;SDS011;28341;52.064;4.920;2022-08-16T01:25:06;49.15;;;43.92;;
42702;SDS011;28341;52.064;4.920;2022-08-16T01:27:15;51.25;;;45.75;;
42702;SDS011;28341;52.064;4.920;2022-08-16T01:29:24;53.15;;;47.47;;
42702;SDS011;28341;52.064;4.920;2022-08-16T01:31:32;55.30;;;49.53;;
42702;SDS011;28341;52.064;4.920;2022-08-16T01:33:36;57.20;;;51.28;;
42702;SDS011;28341;52.064;4.920;2022-08-16T01:35:41;54.35;;;48.90;;
42702;SDS011;28341;52.064;4.920;2022-08-16T01:37:51;54.97;;;49.15;;
42702;SDS011;28341;52.064;4.920;2022-08-16T01:40:01;54.72;;;48.92;;
42702;SDS011;28341;52.064;4.920;2022-08-16T01:42:09;51.35;;;45.95;;
42702;SDS011;28341;52.064;4.920;2022-08-16T01:44:14;51.58;;;46.22;;
42702;SDS011;28341;52.064;4.920;2022-08-16T01:46:20;51.30;;;46.00;;
42702;SDS011;28341;52.064;4.920;2022-08-16T01:48:31;50.70;;;45.45;;
42702;SDS011;28341;52.064;4.920;2022-08-16T01:50:36;50.53;;;45.25;;
42702;SDS011;28341;52.064;4.920;2022-08-16T01:52:42;48.58;;;43.40;;
42702;SDS011;28341;52.064;4.920;2022-08-16T01:55:17;48.40;;;43.25;;
42702;SDS011;28341;52.064;4.920;2022-08-16T01:57:27;50.40;;;45.15;;
42702;SDS011;28341;52.064;4.920;2022-08-16T01:59:32;52.75;;;47.03;;
42702;SDS011;28341;52.064;4.920;2022-08-16T02:01:38;48.30;;;42.83;;
42702;SDS011;28341;52.064;4.920;2022-08-16T02:03:43;50.92;;;45.17;;
42702;SDS011;28341;52.064;4.920;2022-08-16T02:05:48;48.35;;;43.17;;
42702;SDS011;28341;52.064;4.920;2022-08-16T02:07:52;48.75;;;41.65;;
42702;SDS011;28341;52.064;4.920;2022-08-16T02:09:57;44.58;;;39.97;;
42702;SDS011;28341;52.064;4.920;2022-08-16T02:12:14;46.92;;;42.03;;
42702;SDS011;28341;52.064;4.920;2022-08-16T02:14:20;47.28;;;42.10;;
42702;SDS011;28341;52.064;4.920;2022-08-16T02:16:25;47.88;;;42.88;;
42702;SDS011;28341;52.064;4.920;2022-08-16T02:18:33;44.72;;;39.92;;
42702;SDS011;28341;52.064;4.920;2022-08-16T02:20:37;47.80;;;42.65;;
42702;SDS011;28341;52.064;4.920;2022-08-16T02:22:42;47.05;;;42.00;;
42702;SDS011;28341;52.064;4.920;2022-08-16T02:24:46;53.13;;;45.40;;
42702;SDS011;28341;52.064;4.920;2022-08-16T02:26:52;48.72;;;43.35;;
42702;SDS011;28341;52.064;4.920;2022-08-16T02:29:00;48.17;;;43.03;;
42702;SDS011;28341;52.064;4.920;2022-08-16T02:31:05;45.13;;;40.33;;
42702;SDS011;28341;52.064;4.920;2022-08-16T02:33:12;47.20;;;41.88;;
42702;SDS011;28341;52.064;4.920;2022-08-16T02:35:17;48.85;;;43.38;;
42702;SDS011;28341;52.064;4.920;2022-08-16T02:37:22;45.28;;;40.47;;
42702;SDS011;28341;52.064;4.920;2022-08-16T02:39:26;47.90;;;41.75;;
42702;SDS011;28341;52.064;4.920;2022-08-16T02:41:31;45.45;;;40.75;;
42702;SDS011;28341;52.064;4.920;2022-08-16T02:43:36;44.33;;;39.78;;
42702;SDS011;28341;52.064;4.920;2022-08-16T02:45:43;48.25;;;42.85;;
42702;SDS011;28341;52.064;4.920;2022-08-16T02:47:47;42.17;;;37.58;;
42702;SDS011;28341;52.064;4.920;2022-08-16T02:49:52;43.97;;;39.45;;
42702;SDS011;28341;52.064;4.920;2022-08-16T02:51:56;48.90;;;42.05;;
42702;SDS011;28341;52.064;4.920;2022-08-16T02:54:00;45.70;;;40.60;;
42702;SDS011;28341;52.064;4.920;2022-08-16T02:56:07;44.67;;;39.95;;
42702;SDS011;28341;52.064;4.920;2022-08-16T02:58:12;45.65;;;40.53;;
42702;SDS011;28341;52.064;4.920;2022-08-16T03:00:16;41.33;;;37.22;;
42702;SDS011;28341;52.064;4.920;2022-08-16T03:02:25;44.13;;;39.33;;
42702;SDS011;28341;52.064;4.920;2022-08-16T03:04:29;47.13;;;42.22;;
42702;SDS011;28341;52.064;4.920;2022-08-16T03:06:34;41.75;;;37.55;;
42702;SDS011;28341;52.064;4.920;2022-08-16T03:08:45;45.05;;;40.30;;
42702;SDS011;28341;52.064;4.920;2022-08-16T03:10:50;42.60;;;37.55;;
42702;SDS011;28341;52.064;4.920;2022-08-16T03:12:54;48.85;;;43.15;;
42702;SDS011;28341;52.064;4.920;2022-08-16T03:15:02;52.42;;;44.22;;
42702;SDS011;28341;52.064;4.920;2022-08-16T03:17:07;47.88;;;42.75;;
42702;SDS011;28341;52.064;4.920;2022-08-16T03:19:15;47.30;;;42.40;;
42702;SDS011;28341;52.064;4.920;2022-08-16T03:21:20;43.58;;;38.90;;
42702;SDS011;28341;52.064;4.920;2022-08-16T03:23:24;45.03;;;40.33;;
42702;SDS011;28341;52.064;4.920;2022-08-16T03:25:29;46.92;;;41.83;;
42702;SDS011;28341;52.064;4.920;2022-08-16T03:27:36;44.28;;;39.78;;
42702;SDS011;28341;52.064;4.920;2022-08-16T03:29:45;46.42;;;41.55;;
42702;SDS011;28341;52.064;4.920;2022-08-16T03:31:50;45.78;;;40.88;;
42702;SDS011;28341;52.064;4.920;2022-08-16T03:33:56;42.35;;;38.00;;
42702;SDS011;28341;52.064;4.920;2022-08-16T03:36:03;47.72;;;42.25;;
42702;SDS011;28341;52.064;4.920;2022-08-16T03:38:13;42.08;;;37.80;;
42702;SDS011;28341;52.064;4.920;2022-08-16T03:40:22;45.13;;;40.25;;
42702;SDS011;28341;52.064;4.920;2022-08-16T03:42:26;48.50;;;43.50;;
42702;SDS011;28341;52.064;4.920;2022-08-16T03:44:31;45.67;;;40.78;;
42702;SDS011;28341;52.064;4.920;2022-08-16T03:46:35;44.20;;;39.58;;
42702;SDS011;28341;52.064;4.920;2022-08-16T03:48:41;47.40;;;42.05;;
42702;SDS011;28341;52.064;4.920;2022-08-16T03:50:50;50.97;;;43.45;;
42702;SDS011;28341;52.064;4.920;2022-08-16T03:52:57;46.72;;;41.65;;
42702;SDS011;28341;52.064;4.920;2022-08-16T03:55:03;45.40;;;40.55;;
42702;SDS011;28341;52.064;4.920;2022-08-16T03:57:09;40.80;;;36.70;;
42702;SDS011;28341;52.064;4.920;2022-08-16T03:59:13;46.03;;;41.35;;
42702;SDS011;28341;52.064;4.920;2022-08-16T04:01:22;44.28;;;39.47;;
42702;SDS011;28341;52.064;4.920;2022-08-16T04:03:28;44.70;;;38.58;;
42702;SDS011;28341;52.064;4.920;2022-08-16T04:05:32;43.88;;;39.28;;
42702;SDS011;28341;52.064;4.920;2022-08-16T04:07:39;45.88;;;40.95;;
42702;SDS011;28341;52.064;4.920;2022-08-16T04:09:45;48.70;;;42.05;;
42702;SDS011;28341;52.064;4.920;2022-08-16T04:11:50;53.00;;;47.25;;
42702;SDS011;28341;52.064;4.920;2022-08-16T04:13:54;52.30;;;45.25;;
42702;SDS011;28341;52.064;4.920;2022-08-16T04:16:00;53.55;;;44.97;;
42702;SDS011;28341;52.064;4.920;2022-08-16T04:18:06;47.53;;;42.47;;
42702;SDS011;28341;52.064;4.920;2022-08-16T04:20:11;44.55;;;39.85;;
42702;SDS011;28341;52.064;4.920;2022-08-16T04:22:16;52.13;;;45.25;;
42702;SDS011;28341;52.064;4.920;2022-08-16T04:24:26;49.00;;;43.58;;
42702;SDS011;28341;52.064;4.920;2022-08-16T04:26:34;54.50;;;46.80;;
42702;SDS011;28341;52.064;4.920;2022-08-16T04:28:39;53.13;;;45.15;;
42702;SDS011;28341;52.064;4.920;2022-08-16T04:30:45;54.88;;;46.20;;
42702;SDS011;28341;52.064;4.920;2022-08-16T04:32:49;54.38;;;45.78;;
42702;SDS011;28341;52.064;4.920;2022-08-16T04:34:54;52.58;;;46.80;;
42702;SDS011;28341;52.064;4.920;2022-08-16T04:36:58;51.97;;;45.28;;
42702;SDS011;28341;52.064;4.920;2022-08-16T04:39:06;53.80;;;47.60;;
42702;SDS011;28341;52.064;4.920;2022-08-16T04:41:12;59.10;;;46.50;;
42702;SDS011;28341;52.064;4.920;2022-08-16T04:43:19;50.10;;;43.38;;
42702;SDS011;28341;52.064;4.920;2022-08-16T04:45:24;58.00;;;48.45;;
42702;SDS011;28341;52.064;4.920;2022-08-16T04:47:29;51.55;;;45.45;;
42702;SDS011;28341;52.064;4.920;2022-08-16T04:49:35;52.08;;;44.03;;
42702;SDS011;28341;52.064;4.920;2022-08-16T04:51:39;49.78;;;44.33;;
42702;SDS011;28341;52.064;4.920;2022-08-16T04:53:43;52.20;;;46.22;;
42702;SDS011;28341;52.064;4.920;2022-08-16T04:55:49;55.90;;;48.22;;
42702;SDS011;28341;52.064;4.920;2022-08-16T04:57:55;55.63;;;48.97;;
42702;SDS011;28341;52.064;4.920;2022-08-16T05:00:04;51.05;;;44.60;;
42702;SDS011;28341;52.064;4.920;2022-08-16T05:02:12;57.40;;;48.47;;
42702;SDS011;28341;52.064;4.920;2022-08-16T05:04:16;57.38;;;46.63;;
42702;SDS011;28341;52.064;4.920;2022-08-16T05:06:22;58.83;;;50.08;;
42702;SDS011;28341;52.064;4.920;2022-08-16T05:08:28;58.22;;;50.67;;
42702;SDS011;28341;52.064;4.920;2022-08-16T05:10:37;58.38;;;48.30;;
42702;SDS011;28341;52.064;4.920;2022-08-16T05:12:41;59.83;;;50.33;;
42702;SDS011;28341;52.064;4.920;2022-08-16T05:14:46;60.35;;;50.05;;
42702;SDS011;28341;52.064;4.920;2022-08-16T05:16:57;60.38;;;49.58;;
42702;SDS011;28341;52.064;4.920;2022-08-16T05:19:02;58.50;;;49.70;;
42702;SDS011;28341;52.064;4.920;2022-08-16T05:21:11;56.53;;;49.20;;
42702;SDS011;28341;52.064;4.920;2022-08-16T05:23:20;58.90;;;49.17;;
42702;SDS011;28341;52.064;4.920;2022-08-16T05:25:25;60.63;;;49.60;;
42702;SDS011;28341;52.064;4.920;2022-08-16T05:27:30;55.40;;;47.38;;
42702;SDS011;28341;52.064;4.920;2022-08-16T05:29:34;61.67;;;50.88;;
42702;SDS011;28341;52.064;4.920;2022-08-16T05:31:45;62.05;;;51.00;;
42702;SDS011;28341;52.064;4.920;2022-08-16T05:33:53;62.22;;;51.78;;
42702;SDS011;28341;52.064;4.920;2022-08-16T05:35:58;64.20;;;52.17;;
42702;SDS011;28341;52.064;4.920;2022-08-16T05:38:05;62.78;;;51.47;;
42702;SDS011;28341;52.064;4.920;2022-08-16T05:40:10;67.13;;;54.58;;
42702;SDS011;28341;52.064;4.920;2022-08-16T05:42:17;68.22;;;56.88;;
42702;SDS011;28341;52.064;4.920;2022-08-16T05:44:22;61.13;;;51.65;;
42702;SDS011;28341;52.064;4.920;2022-08-16T05:46:30;65.68;;;54.30;;
42702;SDS011;28341;52.064;4.920;2022-08-16T05:48:45;71.85;;;60.17;;
42702;SDS011;28341;52.064;4.920;2022-08-16T05:50:52;76.93;;;59.75;;
42702;SDS011;28341;52.064;4.920;2022-08-16T05:52:56;70.63;;;59.10;;
42702;SDS011;28341;52.064;4.920;2022-08-16T05:55:01;73.13;;;58.22;;
42702;SDS011;28341;52.064;4.920;2022-08-16T05:57:07;71.90;;;59.90;;
42702;SDS011;28341;52.064;4.920;2022-08-16T05:59:12;79.07;;;61.25;;
42702;SDS011;28341;52.064;4.920;2022-08-16T06:01:19;72.63;;;58.40;;
42702;SDS011;28341;52.064;4.920;2022-08-16T06:03:26;71.00;;;58.28;;
42702;SDS011;28341;52.064;4.920;2022-08-16T06:05:33;75.65;;;59.20;;
42702;SDS011;28341;52.064;4.920;2022-08-16T06:07:40;85.78;;;65.85;;
42702;SDS011;28341;52.064;4.920;2022-08-16T06:09:55;75.22;;;60.53;;
42702;SDS011;28341;52.064;4.920;2022-08-16T06:11:59;78.63;;;64.95;;
42702;SDS011;28341;52.064;4.920;2022-08-16T06:14:04;85.63;;;67.20;;
42702;SDS011;28341;52.064;4.920;2022-08-16T06:16:12;75.70;;;60.15;;
42702;SDS011;28341;52.064;4.920;2022-08-16T06:18:17;81.05;;;64.18;;
42702;SDS011;28341;52.064;4.920;2022-08-16T06:20:23;72.35;;;60.20;;
42702;SDS011;28341;52.064;4.920;2022-08-16T06:22:32;80.82;;;63.35;;
42702;SDS011;28341;52.064;4.920;2022-08-16T06:24:39;79.45;;;62.88;;
42702;SDS011;28341;52.064;4.920;2022-08-16T06:26:43;72.60;;;60.22;;
42702;SDS011;28341;52.064;4.920;2022-08-16T06:28:48;73.43;;;61.63;;
42702;SDS011;28341;52.064;4.920;2022-08-16T06:30:59;74.32;;;59.13;;
42702;SDS011;28341;52.064;4.920;2022-08-16T06:33:04;70.50;;;56.65;;
42702;SDS011;28341;52.064;4.920;2022-08-16T06:35:09;75.18;;;63.13;;
42702;SDS011;28341;52.064;4.920;2022-08-16T06:37:17;72.60;;;58.55;;
42702;SDS011;28341;52.064;4.920;2022-08-16T06:39:21;72.07;;;59.83;;
42702;SDS011;28341;52.064;4.920;2022-08-16T06:41:28;78.32;;;64.55;;
42702;SDS011;28341;52.064;4.920;2022-08-16T06:43:41;79.60;;;63.15;;
42702;SDS011;28341;52.064;4.920;2022-08-16T06:45:51;75.05;;;64.18;;
42702;SDS011;28341;52.064;4.920;2022-08-16T06:48:00;70.15;;;61.03;;
42702;SDS011;28341;52.064;4.920;2022-08-16T06:50:05;77.47;;;63.60;;
42702;SDS011;28341;52.064;4.920;2022-08-16T06:52:16;68.65;;;59.38;;
42702;SDS011;28341;52.064;4.920;2022-08-16T06:54:21;77.75;;;61.33;;
42702;SDS011;28341;52.064;4.920;2022-08-16T06:56:28;75.28;;;63.13;;
42702;SDS011;28341;52.064;4.920;2022-08-16T06:58:40;72.22;;;60.72;;
42702;SDS011;28341;52.064;4.920;2022-08-16T07:00:47;66.32;;;58.85;;
42702;SDS011;28341;52.064;4.920;2022-08-16T07:02:52;66.30;;;56.03;;
42702;SDS011;28341;52.064;4.920;2022-08-16T07:04:56;69.38;;;60.00;;
42702;SDS011;28341;52.064;4.920;2022-08-16T07:07:01;68.90;;;60.42;;
42702;SDS011;28341;52.064;4.920;2022-08-16T07:09:09;73.65;;;64.32;;
42702;SDS011;28341;52.064;4.920;2022-08-16T07:11:17;63.75;;;56.83;;
42702;SDS011;28341;52.064;4.920;2022-08-16T07:13:24;58.45;;;52.03;;
42702;SDS011;28341;52.064;4.920;2022-08-16T07:15:30;66.63;;;57.67;;
42702;SDS011;28341;52.064;4.920;2022-08-16T07:17:36;61.17;;;53.67;;
42702;SDS011;28341;52.064;4.920;2022-08-16T07:19:41;64.20;;;56.15;;
42702;SDS011;28341;52.064;4.920;2022-08-16T07:21:45;61.35;;;54.20;;
42702;SDS011;28341;52.064;4.920;2022-08-16T07:23:51;61.10;;;54.28;;
42702;SDS011;28341;52.064;4.920;2022-08-16T07:25:55;59.13;;;52.65;;
42702;SDS011;28341;52.064;4.920;2022-08-16T07:27:59;57.78;;;51.28;;
42702;SDS011;28341;52.064;4.920;2022-08-16T07:30:11;58.92;;;52.25;;
42702;SDS011;28341;52.064;4.920;2022-08-16T07:32:16;53.58;;;47.88;;
42702;SDS011;28341;52.064;4.920;2022-08-16T07:34:21;62.75;;;55.47;;
42702;SDS011;28341;52.064;4.920;2022-08-16T07:36:25;60.05;;;50.72;;
42702;SDS011;28341;52.064;4.920;2022-08-16T07:38:30;57.38;;;51.25;;
42702;SDS011;28341;52.064;4.920;2022-08-16T07:40:37;59.90;;;52.53;;
42702;SDS011;28341;52.064;4.920;2022-08-16T07:42:42;60.17;;;50.00;;
42702;SDS011;28341;52.064;4.920;2022-08-16T07:44:47;57.95;;;50.78;;
42702;SDS011;28341;52.064;4.920;2022-08-16T07:46:54;61.47;;;50.00;;
42702;SDS011;28341;52.064;4.920;2022-08-16T07:49:00;59.70;;;51.45;;
42702;SDS011;28341;52.064;4.920;2022-08-16T07:51:08;56.50;;;48.58;;
42702;SDS011;28341;52.064;4.920;2022-08-16T07:53:15;55.95;;;47.50;;
42702;SDS011;28341;52.064;4.920;2022-08-16T07:55:19;52.33;;;45.97;;
42702;SDS011;28341;52.064;4.920;2022-08-16T07:57:24;45.67;;;40.85;;
42702;SDS011;28341;52.064;4.920;2022-08-16T07:59:28;52.10;;;46.33;;
42702;SDS011;28341;52.064;4.920;2022-08-16T08:01:33;49.17;;;42.67;;
42702;SDS011;28341;52.064;4.920;2022-08-16T08:03:42;55.45;;;49.35;;
42702;SDS011;28341;52.064;4.920;2022-08-16T08:05:47;56.60;;;50.15;;
42702;SDS011;28341;52.064;4.920;2022-08-16T08:07:54;51.70;;;45.80;;
42702;SDS011;28341;52.064;4.920;2022-08-16T08:09:58;56.63;;;50.30;;
42702;SDS011;28341;52.064;4.920;2022-08-16T08:12:03;51.28;;;45.85;;
42702;SDS011;28341;52.064;4.920;2022-08-16T08:14:12;53.83;;;48.05;;
42702;SDS011;28341;52.064;4.920;2022-08-16T08:16:20;50.03;;;44.92;;
42702;SDS011;28341;52.064;4.920;2022-08-16T08:18:24;51.67;;;45.88;;
42702;SDS011;28341;52.064;4.920;2022-08-16T08:20:32;53.13;;;47.33;;
42702;SDS011;28341;52.064;4.920;2022-08-16T08:22:39;52.83;;;47.20;;
42702;SDS011;28341;52.064;4.920;2022-08-16T08:24:46;52.28;;;46.47;;
42702;SDS011;28341;52.064;4.920;2022-08-16T08:26:50;51.35;;;45.15;;
42702;SDS011;28341;52.064;4.920;2022-08-16T08:28:58;50.08;;;44.72;;
42702;SDS011;28341;52.064;4.920;2022-08-16T08:31:03;51.72;;;46.33;;
42702;SDS011;28341;52.064;4.920;2022-08-16T08:33:10;174.05;;;155.63;;
42702;SDS011;28341;52.064;4.920;2022-08-16T08:35:17;103.45;;;92.55;;
42702;SDS011;28341;52.064;4.920;2022-08-16T08:37:24;57.08;;;50.92;;
42702;SDS011;28341;52.064;4.920;2022-08-16T08:39:32;56.47;;;49.95;;
42702;SDS011;28341;52.064;4.920;2022-08-16T08:41:37;51.50;;;45.95;;
42702;SDS011;28341;52.064;4.920;2022-08-16T08:43:42;49.47;;;44.25;;
42702;SDS011;28341;52.064;4.920;2022-08-16T08:45:48;57.13;;;47.42;;
42702;SDS011;28341;52.064;4.920;2022-08-16T08:47:55;51.00;;;45.53;;
42702;SDS011;28341;52.064;4.920;2022-08-16T08:50:04;48.75;;;43.60;;
42702;SDS011;28341;52.064;4.920;2022-08-16T08:52:10;51.35;;;45.65;;
42702;SDS011;28341;52.064;4.920;2022-08-16T08:54:18;50.17;;;44.88;;
42702;SDS011;28341;52.064;4.920;2022-08-16T08:56:26;47.05;;;41.55;;
42702;SDS011;28341;52.064;4.920;2022-08-16T08:58:37;47.95;;;42.17;;
42702;SDS011;28341;52.064;4.920;2022-08-16T09:01:05;45.42;;;40.58;;
42702;SDS011;28341;52.064;4.920;2022-08-16T09:03:10;49.28;;;43.97;;
42702;SDS011;28341;52.064;4.920;2022-08-16T09:05:15;50.88;;;45.42;;
42702;SDS011;28341;52.064;4.920;2022-08-16T09:07:23;54.20;;;45.42;;
42702;SDS011;28341;52.064;4.920;2022-08-16T09:09:33;52.03;;;46.30;;
42702;SDS011;28341;52.064;4.920;2022-08-16T09:11:39;41.65;;;37.42;;
42702;SDS011;28341;52.064;4.920;2022-08-16T09:13:45;47.08;;;41.72;;
42702;SDS011;28341;52.064;4.920;2022-08-16T09:15:51;48.05;;;42.42;;
42702;SDS011;28341;52.064;4.920;2022-08-16T09:17:58;47.60;;;42.15;;
42702;SDS011;28341;52.064;4.920;2022-08-16T09:20:03;47.45;;;42.47;;
42702;SDS011;28341;52.064;4.920;2022-08-16T09:22:09;46.22;;;41.20;;
42702;SDS011;28341;52.064;4.920;2022-08-16T09:24:14;42.65;;;38.10;;
42702;SDS011;28341;52.064;4.920;2022-08-16T09:26:22;45.97;;;39.55;;
42702;SDS011;28341;52.064;4.920;2022-08-16T09:28:27;143.13;;;128.23;;
42702;SDS011;28341;52.064;4.920;2022-08-16T09:30:51;78.88;;;70.38;;
42702;SDS011;28341;52.064;4.920;2022-08-16T09:32:56;44.17;;;39.50;;
42702;SDS011;28341;52.064;4.920;2022-08-16T09:35:00;44.55;;;37.38;;
42702;SDS011;28341;52.064;4.920;2022-08-16T09:37:05;38.53;;;34.58;;
42702;SDS011;28341;52.064;4.920;2022-08-16T09:39:09;36.75;;;32.83;;
42702;SDS011;28341;52.064;4.920;2022-08-16T09:41:13;42.47;;;37.75;;
42702;SDS011;28341;52.064;4.920;2022-08-16T09:43:20;39.30;;;35.30;;
42702;SDS011;28341;52.064;4.920;2022-08-16T09:45:25;42.58;;;37.95;;
42702;SDS011;28341;52.064;4.920;2022-08-16T09:47:32;40.75;;;36.33;;
42702;SDS011;28341;52.064;4.920;2022-08-16T09:49:40;39.20;;;34.03;;
42702;SDS011;28341;52.064;4.920;2022-08-16T09:51:44;39.88;;;35.38;;
42702;SDS011;28341;52.064;4.920;2022-08-16T09:53:53;37.65;;;33.65;;
42702;SDS011;28341;52.064;4.920;2022-08-16T09:55:58;39.22;;;35.08;;
42702;SDS011;28341;52.064;4.920;2022-08-16T09:58:03;42.38;;;37.85;;
42702;SDS011;28341;52.064;4.920;2022-08-16T10:00:11;38.00;;;33.17;;
42702;SDS011;28341;52.064;4.920;2022-08-16T10:02:16;37.25;;;33.10;;
42702;SDS011;28341;52.064;4.920;2022-08-16T10:04:20;36.72;;;32.72;;
42702;SDS011;28341;52.064;4.920;2022-08-16T10:06:26;36.38;;;32.30;;
42702;SDS011;28341;52.064;4.920;2022-08-16T10:08:30;36.38;;;31.27;;
42702;SDS011;28341;52.064;4.920;2022-08-16T10:10:35;35.85;;;31.80;;
42702;SDS011;28341;52.064;4.920;2022-08-16T10:12:40;39.63;;;35.35;;
42702;SDS011;28341;52.064;4.920;2022-08-16T10:14:57;39.03;;;34.47;;
42702;SDS011;28341;52.064;4.920;2022-08-16T10:17:04;36.28;;;32.22;;
42702;SDS011;28341;52.064;4.920;2022-08-16T10:19:09;39.08;;;34.17;;
42702;SDS011;28341;52.064;4.920;2022-08-16T10:21:13;49.88;;;41.35;;
42702;SDS011;28341;52.064;4.920;2022-08-16T10:23:18;42.17;;;37.70;;
42702;SDS011;28341;52.064;4.920;2022-08-16T10:25:22;36.38;;;32.45;;
42702;SDS011;28341;52.064;4.920;2022-08-16T10:27:26;41.60;;;32.92;;
42702;SDS011;28341;52.064;4.920;2022-08-16T10:29:31;37.40;;;33.05;;
42702;SDS011;28341;52.064;4.920;2022-08-16T10:31:36;36.05;;;31.92;;
42702;SDS011;28341;52.064;4.920;2022-08-16T10:33:43;35.03;;;29.45;;
42702;SDS011;28341;52.064;4.920;2022-08-16T10:35:48;34.70;;;31.13;;
42702;SDS011;28341;52.064;4.920;2022-08-16T10:37:52;32.67;;;27.70;;
42702;SDS011;28341;52.064;4.920;2022-08-16T10:39:57;29.88;;;26.73;;
42702;SDS011;28341;52.064;4.920;2022-08-16T10:42:01;34.78;;;28.63;;
42702;SDS011;28341;52.064;4.920;2022-08-16T10:44:06;27.45;;;24.60;;
42702;SDS011;28341;52.064;4.920;2022-08-16T10:46:10;32.58;;;27.15;;
42702;SDS011;28341;52.064;4.920;2022-08-16T10:48:16;31.15;;;27.98;;
42702;SDS011;28341;52.064;4.920;2022-08-16T10:50:23;28.77;;;25.85;;
42702;SDS011;28341;52.064;4.920;2022-08-16T10:52:29;27.08;;;23.38;;
42702;SDS011;28341;52.064;4.920;2022-08-16T10:54:33;27.40;;;24.52;;
42702;SDS011;28341;52.064;4.920;2022-08-16T10:56:38;29.48;;;25.67;;
42702;SDS011;28341;52.064;4.920;2022-08-16T10:58:43;23.27;;;20.88;;
42702;SDS011;28341;52.064;4.920;2022-08-16T11:00:48;23.13;;;20.67;;
42702;SDS011;28341;52.064;4.920;2022-08-16T11:02:52;22.50;;;20.10;;
42702;SDS011;28341;52.064;4.920;2022-08-16T11:04:56;21.90;;;19.67;;
42702;SDS011;28341;52.064;4.920;2022-08-16T11:07:05;25.48;;;19.55;;
42702;SDS011;28341;52.064;4.920;2022-08-16T11:09:09;19.45;;;16.08;;
42702;SDS011;28341;52.064;4.920;2022-08-16T11:11:13;21.33;;;18.75;;
42702;SDS011;28341;52.064;4.920;2022-08-16T11:13:18;21.65;;;19.58;;
42702;SDS011;28341;52.064;4.920;2022-08-16T11:15:25;21.00;;;17.63;;
42702;SDS011;28341;52.064;4.920;2022-08-16T11:17:30;18.23;;;15.90;;
42702;SDS011;28341;52.064;4.920;2022-08-16T11:19:34;20.60;;;16.15;;
42702;SDS011;28341;52.064;4.920;2022-08-16T11:21:41;18.27;;;15.52;;
42702;SDS011;28341;52.064;4.920;2022-08-16T11:23:49;22.10;;;18.45;;
42702;SDS011;28341;52.064;4.920;2022-08-16T11:25:54;16.30;;;14.20;;
42702;SDS011;28341;52.064;4.920;2022-08-16T11:27:58;19.33;;;13.93;;
42702;SDS011;28341;52.064;4.920;2022-08-16T11:30:05;24.88;;;22.25;;
42702;SDS011;28341;52.064;4.920;2022-08-16T11:32:11;47.45;;;40.42;;
42702;SDS011;28341;52.064;4.920;2022-08-16T11:34:27;21.35;;;17.15;;
42702;SDS011;28341;52.064;4.920;2022-08-16T11:36:31;21.50;;;18.80;;
42702;SDS011;28341;52.064;4.920;2022-08-16T11:38:36;22.67;;;19.80;;
42702;SDS011;28341;52.064;4.920;2022-08-16T11:40:41;26.35;;;19.83;;
42702;SDS011;28341;52.064;4.920;2022-08-16T11:42:49;19.42;;;16.42;;
42702;SDS011;28341;52.064;4.920;2022-08-16T11:44:54;20.95;;;17.33;;
42702;SDS011;28341;52.064;4.920;2022-08-16T11:46:59;19.15;;;16.05;;
42702;SDS011;28341;52.064;4.920;2022-08-16T11:49:03;55.70;;;50.17;;
42702;SDS011;28341;52.064;4.920;2022-08-16T11:51:11;33.28;;;29.55;;
42702;SDS011;28341;52.064;4.920;2022-08-16T11:53:15;20.30;;;16.60;;
42702;SDS011;28341;52.064;4.920;2022-08-16T11:55:20;18.73;;;14.30;;
42702;SDS011;28341;52.064;4.920;2022-08-16T11:57:25;17.77;;;15.35;;
42702;SDS011;28341;52.064;4.920;2022-08-16T11:59:29;21.88;;;15.48;;
42702;SDS011;28341;52.064;4.920;2022-08-16T12:01:35;16.42;;;12.15;;
42702;SDS011;28341;52.064;4.920;2022-08-16T12:03:40;16.70;;;14.00;;
42702;SDS011;28341;52.064;4.920;2022-08-16T12:05:45;16.98;;;15.07;;
42702;SDS011;28341;52.064;4.920;2022-08-16T12:07:52;17.02;;;12.27;;
42702;SDS011;28341;52.064;4.920;2022-08-16T12:09:57;16.63;;;11.75;;
42702;SDS011;28341;52.064;4.920;2022-08-16T12:12:02;13.48;;;11.00;;
42702;SDS011;28341;52.064;4.920;2022-08-16T12:14:08;14.45;;;11.75;;
42702;SDS011;28341;52.064;4.920;2022-08-16T12:16:12;16.25;;;14.00;;
42702;SDS011;28341;52.064;4.920;2022-08-16T12:18:18;15.15;;;13.60;;